
Distance (Route):
Temperature : 0°C
Humidity : 0%
Pressure : 0hPa| Receiver | Frames | First received | Last received |
|---|---|---|---|
| LZ4TU-5 | 128 | 2026-09-02 09:00:11 | 2026-09-02 09:29:17 |
| Receiver | Date | Latitude | Longitude | Direction | Speed | Altitude | Climb | Temperature | Humidity | Pressure | Voltage | Killtimer | Uptime | BKT | XDATA |
|---|---|---|---|---|---|---|---|---|---|---|---|---|---|---|---|
| LZ4TU-5 | 2026-09-02 09:29:17 | 44.91356 | 20.66662 | 90° | 62km/h | 6801m | -8.4m/s | 0°C | 0% | 0hPa | 0V | 00:00:00 | 00:00:00 | 00:00:00 | |
| LZ4TU-5 | 2026-09-02 09:29:13 | 44.91353 | 20.66573 | 89° | 62km/h | 6839m | -9.3m/s | 0°C | 0% | 0hPa | 0V | 00:00:00 | 00:00:00 | 00:00:00 | |
| LZ4TU-5 | 2026-09-02 09:29:09 | 44.91350 | 20.66461 | 88° | 64km/h | 6885m | -10.0m/s | 0°C | 0% | 0hPa | 0V | 00:00:00 | 00:00:00 | 00:00:00 | |
| LZ4TU-5 | 2026-09-02 09:29:05 | 44.91346 | 20.66368 | 88° | 66km/h | 6925m | -10.0m/s | 0°C | 0% | 0hPa | 0V | 00:00:00 | 00:00:00 | 00:00:00 | |
| LZ4TU-5 | 2026-09-02 09:29:00 | 44.91342 | 20.66271 | 89° | 69km/h | 6965m | -10.6m/s | 0°C | 0% | 0hPa | 0V | 00:00:00 | 00:00:00 | 00:00:00 | |
| LZ4TU-5 | 2026-09-02 09:28:54 | 44.91339 | 20.66096 | 89° | 69km/h | 7033m | -9.6m/s | 0°C | 0% | 0hPa | 0V | 00:00:00 | 00:00:00 | 00:00:00 | |
| LZ4TU-5 | 2026-09-02 09:28:49 | 44.91335 | 20.65997 | 89° | 69km/h | 7071m | -10.6m/s | 0°C | 0% | 0hPa | 0V | 00:00:00 | 00:00:00 | 00:00:00 | |
| LZ4TU-5 | 2026-09-02 09:28:45 | 44.91332 | 20.65896 | 88° | 71km/h | 7109m | -9.1m/s | 0°C | 0% | 0hPa | 0V | 00:00:00 | 00:00:00 | 00:00:00 | |
| LZ4TU-5 | 2026-09-02 09:28:41 | 44.91328 | 20.65769 | 89° | 69km/h | 7158m | -9.8m/s | 0°C | 0% | 0hPa | 0V | 00:00:00 | 00:00:00 | 00:00:00 | |
| LZ4TU-5 | 2026-09-02 09:28:35 | 44.91324 | 20.65645 | 89° | 69km/h | 7206m | -9.6m/s | 0°C | 0% | 0hPa | 0V | 00:00:00 | 00:00:00 | 00:00:00 | |
| LZ4TU-5 | 2026-09-02 09:27:22 | 44.91305 | 20.63682 | 86° | 78km/h | 7931m | -10.5m/s | 0°C | 0% | 0hPa | 0V | 00:00:00 | 00:00:00 | 00:00:00 | |
| LZ4TU-5 | 2026-09-02 09:27:17 | 44.91298 | 20.63573 | 86° | 77km/h | 7971m | -8.9m/s | 0°C | 0% | 0hPa | 0V | 00:00:00 | 00:00:00 | 00:00:00 | |
| LZ4TU-5 | 2026-09-02 09:27:13 | 44.91290 | 20.63462 | 85° | 78km/h | 8007m | -8.0m/s | 0°C | 0% | 0hPa | 0V | 00:00:00 | 00:00:00 | 00:00:00 | |
| LZ4TU-5 | 2026-09-02 09:27:09 | 44.91281 | 20.63352 | 84° | 77km/h | 8047m | -10.1m/s | 0°C | 0% | 0hPa | 0V | 00:00:00 | 00:00:00 | 00:00:00 | |
| LZ4TU-5 | 2026-09-02 09:27:05 | 44.91270 | 20.63243 | 83° | 77km/h | 8089m | -10.4m/s | 0°C | 0% | 0hPa | 0V | 00:00:00 | 00:00:00 | 00:00:00 | |
| LZ4TU-5 | 2026-09-02 09:27:00 | 44.91257 | 20.63106 | 82° | 78km/h | 8140m | -9.9m/s | 0°C | 0% | 0hPa | 0V | 00:00:00 | 00:00:00 | 00:00:00 | |
| LZ4TU-5 | 2026-09-02 09:25:49 | 44.90895 | 20.60961 | 80° | 99km/h | 8852m | -10.5m/s | 0°C | 0% | 0hPa | 0V | 00:00:00 | 00:00:00 | 00:00:00 | |
| LZ4TU-5 | 2026-09-02 09:25:44 | 44.90876 | 20.60823 | 80° | 99km/h | 8893m | -8.8m/s | 0°C | 0% | 0hPa | 0V | 00:00:00 | 00:00:00 | 00:00:00 | |
| LZ4TU-5 | 2026-09-02 09:25:40 | 44.90856 | 20.60686 | 80° | 99km/h | 8934m | -10.3m/s | 0°C | 0% | 0hPa | 0V | 00:00:00 | 00:00:00 | 00:00:00 | |
| LZ4TU-5 | 2026-09-02 09:25:36 | 44.90839 | 20.60549 | 81° | 97km/h | 8974m | -9.2m/s | 0°C | 0% | 0hPa | 0V | 00:00:00 | 00:00:00 | 00:00:00 | |
| LZ4TU-5 | 2026-09-02 09:25:32 | 44.90822 | 20.60413 | 81° | 97km/h | 9017m | -11.4m/s | 0°C | 0% | 0hPa | 0V | 00:00:00 | 00:00:00 | 00:00:00 | |
| LZ4TU-5 | 2026-09-02 09:25:28 | 44.90805 | 20.60276 | 81° | 99km/h | 9060m | -10.7m/s | 0°C | 0% | 0hPa | 0V | 00:00:00 | 00:00:00 | 00:00:00 | |
| LZ4TU-5 | 2026-09-02 09:24:14 | 44.90436 | 20.57668 | 80° | 97km/h | 9863m | -11.8m/s | 0°C | 0% | 0hPa | 0V | 00:00:00 | 00:00:00 | 00:00:00 | |
| LZ4TU-5 | 2026-09-02 09:24:09 | 44.90416 | 20.57534 | 78° | 95km/h | 9907m | -10.7m/s | 0°C | 0% | 0hPa | 0V | 00:00:00 | 00:00:00 | 00:00:00 | |
| LZ4TU-5 | 2026-09-02 09:24:05 | 44.90394 | 20.57400 | 78° | 97km/h | 9951m | -12.3m/s | 0°C | 0% | 0hPa | 0V | 00:00:00 | 00:00:00 | 00:00:00 | |
| LZ4TU-5 | 2026-09-02 09:24:01 | 44.90372 | 20.57265 | 79° | 97km/h | 9997m | -11.3m/s | 0°C | 0% | 0hPa | 0V | 00:00:00 | 00:00:00 | 00:00:00 | |
| LZ4TU-5 | 2026-09-02 09:23:57 | 44.90353 | 20.57129 | 81° | 97km/h | 10043m | -12.6m/s | 0°C | 0% | 0hPa | 0V | 00:00:00 | 00:00:00 | 00:00:00 | |
| LZ4TU-5 | 2026-09-02 09:23:53 | 44.90334 | 20.56962 | 82° | 93km/h | 10104m | -12.5m/s | 0°C | 0% | 0hPa | 0V | 00:00:00 | 00:00:00 | 00:00:00 | |
| LZ4TU-5 | 2026-09-02 09:23:48 | 44.90316 | 20.56802 | 82° | 89km/h | 10164m | -10.4m/s | 0°C | 0% | 0hPa | 0V | 00:00:00 | 00:00:00 | 00:00:00 | |
| LZ4TU-5 | 2026-09-02 09:23:43 | 44.90302 | 20.56676 | 81° | 89km/h | 10206m | -11.4m/s | 0°C | 0% | 0hPa | 0V | 00:00:00 | 00:00:00 | 00:00:00 | |
| LZ4TU-5 | 2026-09-02 09:23:39 | 44.90286 | 20.56549 | 81° | 91km/h | 10254m | -11.9m/s | 0°C | 0% | 0hPa | 0V | 00:00:00 | 00:00:00 | 00:00:00 | |
| LZ4TU-5 | 2026-09-02 09:23:35 | 44.90270 | 20.56423 | 81° | 89km/h | 10301m | -10.9m/s | 0°C | 0% | 0hPa | 0V | 00:00:00 | 00:00:00 | 00:00:00 | |
| LZ4TU-5 | 2026-09-02 09:23:31 | 44.90248 | 20.56268 | 79° | 89km/h | 10358m | -12.9m/s | 0°C | 0% | 0hPa | 0V | 00:00:00 | 00:00:00 | 00:00:00 | |
| LZ4TU-5 | 2026-09-02 09:22:18 | 44.89977 | 20.54013 | 83° | 91km/h | 11200m | -9.4m/s | 0°C | 0% | 0hPa | 0V | 00:00:00 | 00:00:00 | 00:00:00 | |
| LZ4TU-5 | 2026-09-02 09:22:13 | 44.89962 | 20.53883 | 82° | 93km/h | 11241m | -10.3m/s | 0°C | 0% | 0hPa | 0V | 00:00:00 | 00:00:00 | 00:00:00 | |
| LZ4TU-5 | 2026-09-02 09:22:09 | 44.89946 | 20.53750 | 81° | 97km/h | 11282m | -10.5m/s | 0°C | 0% | 0hPa | 0V | 00:00:00 | 00:00:00 | 00:00:00 | |
| LZ4TU-5 | 2026-09-02 09:22:05 | 44.89928 | 20.53613 | 80° | 99km/h | 11325m | -10.9m/s | 0°C | 0% | 0hPa | 0V | 00:00:00 | 00:00:00 | 00:00:00 | |
| LZ4TU-5 | 2026-09-02 09:22:01 | 44.89909 | 20.53473 | 80° | 100km/h | 11369m | -11.6m/s | 0°C | 0% | 0hPa | 0V | 00:00:00 | 00:00:00 | 00:00:00 | |
| LZ4TU-5 | 2026-09-02 09:21:57 | 44.89889 | 20.53334 | 79° | 100km/h | 11413m | -10.6m/s | 0°C | 0% | 0hPa | 0V | 00:00:00 | 00:00:00 | 00:00:00 | |
| LZ4TU-5 | 2026-09-02 09:20:43 | 44.89409 | 20.50437 | 75° | 117km/h | 12277m | -11.0m/s | 0°C | 0% | 0hPa | 0V | 00:00:00 | 00:00:00 | 00:00:00 | |
| LZ4TU-5 | 2026-09-02 09:20:39 | 44.89371 | 20.50236 | 78° | 117km/h | 12331m | -11.1m/s | 0°C | 0% | 0hPa | 0V | 00:00:00 | 00:00:00 | 00:00:00 | |
| LZ4TU-5 | 2026-09-02 09:20:34 | 44.89347 | 20.50073 | 80° | 115km/h | 12375m | -11.5m/s | 0°C | 0% | 0hPa | 0V | 00:00:00 | 00:00:00 | 00:00:00 | |
| LZ4TU-5 | 2026-09-02 09:20:30 | 44.89325 | 20.49913 | 80° | 113km/h | 12420m | -11.4m/s | 0°C | 0% | 0hPa | 0V | 00:00:00 | 00:00:00 | 00:00:00 | |
| LZ4TU-5 | 2026-09-02 09:20:26 | 44.89303 | 20.49756 | 80° | 113km/h | 12464m | -11.0m/s | 0°C | 0% | 0hPa | 0V | 00:00:00 | 00:00:00 | 00:00:00 | |
| LZ4TU-5 | 2026-09-02 09:20:22 | 44.89275 | 20.49564 | 77° | 108km/h | 12520m | -10.9m/s | 0°C | 0% | 0hPa | 0V | 00:00:00 | 00:00:00 | 00:00:00 | |
| LZ4TU-5 | 2026-09-02 09:20:17 | 44.89240 | 20.49381 | 74° | 106km/h | 12577m | -10.9m/s | 0°C | 0% | 0hPa | 0V | 00:00:00 | 00:00:00 | 00:00:00 | |
| LZ4TU-5 | 2026-09-02 09:20:12 | 44.89206 | 20.49236 | 71° | 110km/h | 12625m | -10.8m/s | 0°C | 0% | 0hPa | 0V | 00:00:00 | 00:00:00 | 00:00:00 | |
| LZ4TU-5 | 2026-09-02 09:20:08 | 44.89168 | 20.49090 | 71° | 110km/h | 12670m | -10.9m/s | 0°C | 0% | 0hPa | 0V | 00:00:00 | 00:00:00 | 00:00:00 | |
| LZ4TU-5 | 2026-09-02 09:20:04 | 44.89131 | 20.48943 | 71° | 110km/h | 12716m | -11.1m/s | 0°C | 0% | 0hPa | 0V | 00:00:00 | 00:00:00 | 00:00:00 | |
| LZ4TU-5 | 2026-09-02 09:19:59 | 44.89084 | 20.48759 | 72° | 110km/h | 12771m | -10.9m/s | 0°C | 0% | 0hPa | 0V | 00:00:00 | 00:00:00 | 00:00:00 | |
| LZ4TU-5 | 2026-09-02 09:18:47 | 44.88519 | 20.46121 | 78° | 106km/h | 13248m | 4.6m/s | 0°C | 0% | 0hPa | 0V | 00:00:00 | 00:00:00 | 00:00:00 | |
| LZ4TU-5 | 2026-09-02 09:18:43 | 44.88487 | 20.45979 | 72° | 102km/h | 13230m | 6.2m/s | 0°C | 0% | 0hPa | 0V | 00:00:00 | 00:00:00 | 00:00:00 | |
| LZ4TU-5 | 2026-09-02 09:18:38 | 44.88449 | 20.45808 | 71° | 106km/h | 13208m | 5.8m/s | 0°C | 0% | 0hPa | 0V | 00:00:00 | 00:00:00 | 00:00:00 | |
| LZ4TU-5 | 2026-09-02 09:18:34 | 44.88417 | 20.45668 | 76° | 106km/h | 13191m | 5.4m/s | 0°C | 0% | 0hPa | 0V | 00:00:00 | 00:00:00 | 00:00:00 | |
| LZ4TU-5 | 2026-09-02 09:18:30 | 44.88382 | 20.45524 | 79° | 106km/h | 13174m | 3.8m/s | 0°C | 0% | 0hPa | 0V | 00:00:00 | 00:00:00 | 00:00:00 | |
| LZ4TU-5 | 2026-09-02 09:18:26 | 44.88345 | 20.45342 | 75° | 102km/h | 13152m | 2.8m/s | 0°C | 0% | 0hPa | 0V | 00:00:00 | 00:00:00 | 00:00:00 | |
| LZ4TU-5 | 2026-09-02 09:17:11 | 44.87636 | 20.42588 | 71° | 106km/h | 12821m | 6.5m/s | 0°C | 0% | 0hPa | 0V | 00:00:00 | 00:00:00 | 00:00:00 | |
| LZ4TU-5 | 2026-09-02 09:17:07 | 44.87597 | 20.42441 | 69° | 106km/h | 12802m | 5.2m/s | 0°C | 0% | 0hPa | 0V | 00:00:00 | 00:00:00 | 00:00:00 | |
| LZ4TU-5 | 2026-09-02 09:17:03 | 44.87556 | 20.42299 | 72° | 111km/h | 12782m | 4.1m/s | 0°C | 0% | 0hPa | 0V | 00:00:00 | 00:00:00 | 00:00:00 | |
| LZ4TU-5 | 2026-09-02 09:16:59 | 44.87518 | 20.42156 | 68° | 111km/h | 12764m | 4.8m/s | 0°C | 0% | 0hPa | 0V | 00:00:00 | 00:00:00 | 00:00:00 | |
| LZ4TU-5 | 2026-09-02 09:16:55 | 44.87482 | 20.42009 | 72° | 111km/h | 12747m | 4.2m/s | 0°C | 0% | 0hPa | 0V | 00:00:00 | 00:00:00 | 00:00:00 | |
| LZ4TU-5 | 2026-09-02 09:16:50 | 44.87438 | 20.41827 | 70° | 102km/h | 12723m | 4.2m/s | 0°C | 0% | 0hPa | 0V | 00:00:00 | 00:00:00 | 00:00:00 | |
| LZ4TU-5 | 2026-09-02 09:16:45 | 44.87390 | 20.41646 | 73° | 113km/h | 12699m | 3.9m/s | 0°C | 0% | 0hPa | 0V | 00:00:00 | 00:00:00 | 00:00:00 | |
| LZ4TU-5 | 2026-09-02 09:16:41 | 44.87351 | 20.41502 | 74° | 106km/h | 12679m | 4.8m/s | 0°C | 0% | 0hPa | 0V | 00:00:00 | 00:00:00 | 00:00:00 | |
| LZ4TU-5 | 2026-09-02 09:16:37 | 44.87313 | 20.41359 | 71° | 104km/h | 12660m | 3.4m/s | 0°C | 0% | 0hPa | 0V | 00:00:00 | 00:00:00 | 00:00:00 | |
| LZ4TU-5 | 2026-09-02 09:16:33 | 44.87276 | 20.41216 | 71° | 100km/h | 12640m | 7.0m/s | 0°C | 0% | 0hPa | 0V | 00:00:00 | 00:00:00 | 00:00:00 | |
| LZ4TU-5 | 2026-09-02 09:16:29 | 44.87243 | 20.41072 | 72° | 104km/h | 12622m | 5.6m/s | 0°C | 0% | 0hPa | 0V | 00:00:00 | 00:00:00 | 00:00:00 | |
| LZ4TU-5 | 2026-09-02 09:15:09 | 44.86687 | 20.37940 | 78° | 111km/h | 12247m | 3.6m/s | 0°C | 0% | 0hPa | 0V | 00:00:00 | 00:00:00 | 00:00:00 | |
| LZ4TU-5 | 2026-09-02 09:15:04 | 44.86655 | 20.37782 | 77° | 110km/h | 12229m | 2.9m/s | 0°C | 0% | 0hPa | 0V | 00:00:00 | 00:00:00 | 00:00:00 | |
| LZ4TU-5 | 2026-09-02 09:15:00 | 44.86623 | 20.37620 | 78° | 113km/h | 12211m | 5.0m/s | 0°C | 0% | 0hPa | 0V | 00:00:00 | 00:00:00 | 00:00:00 | |
| LZ4TU-5 | 2026-09-02 09:14:56 | 44.86584 | 20.37419 | 78° | 113km/h | 12189m | 6.0m/s | 0°C | 0% | 0hPa | 0V | 00:00:00 | 00:00:00 | 00:00:00 | |
| LZ4TU-5 | 2026-09-02 09:14:52 | 44.86552 | 20.37257 | 79° | 119km/h | 12171m | 2.8m/s | 0°C | 0% | 0hPa | 0V | 00:00:00 | 00:00:00 | 00:00:00 | |
| LZ4TU-5 | 2026-09-02 09:14:47 | 44.86520 | 20.37103 | 79° | 117km/h | 12155m | 3.5m/s | 0°C | 0% | 0hPa | 0V | 00:00:00 | 00:00:00 | 00:00:00 | |
| LZ4TU-5 | 2026-09-02 09:13:32 | 44.85933 | 20.34123 | 76° | 122km/h | 11811m | 5.2m/s | 0°C | 0% | 0hPa | 0V | 00:00:00 | 00:00:00 | 00:00:00 | |
| LZ4TU-5 | 2026-09-02 09:13:28 | 44.85905 | 20.33958 | 77° | 122km/h | 11795m | 3.0m/s | 0°C | 0% | 0hPa | 0V | 00:00:00 | 00:00:00 | 00:00:00 | |
| LZ4TU-5 | 2026-09-02 09:13:23 | 44.85880 | 20.33793 | 79° | 122km/h | 11777m | 3.0m/s | 0°C | 0% | 0hPa | 0V | 00:00:00 | 00:00:00 | 00:00:00 | |
| LZ4TU-5 | 2026-09-02 09:13:19 | 44.85859 | 20.33630 | 81° | 120km/h | 11760m | 4.2m/s | 0°C | 0% | 0hPa | 0V | 00:00:00 | 00:00:00 | 00:00:00 | |
| LZ4TU-5 | 2026-09-02 09:13:14 | 44.85832 | 20.33429 | 83° | 124km/h | 11739m | 4.2m/s | 0°C | 0% | 0hPa | 0V | 00:00:00 | 00:00:00 | 00:00:00 | |
| LZ4TU-5 | 2026-09-02 09:12:02 | 44.85472 | 20.30754 | 77° | 95km/h | 11428m | 5.0m/s | 0°C | 0% | 0hPa | 0V | 00:00:00 | 00:00:00 | 00:00:00 | |
| LZ4TU-5 | 2026-09-02 09:11:57 | 44.85452 | 20.30621 | 79° | 89km/h | 11411m | 4.5m/s | 0°C | 0% | 0hPa | 0V | 00:00:00 | 00:00:00 | 00:00:00 | |
| LZ4TU-5 | 2026-09-02 09:11:53 | 44.85434 | 20.30487 | 81° | 93km/h | 11395m | 3.7m/s | 0°C | 0% | 0hPa | 0V | 00:00:00 | 00:00:00 | 00:00:00 | |
| LZ4TU-5 | 2026-09-02 09:11:49 | 44.85415 | 20.30352 | 79° | 99km/h | 11378m | 5.8m/s | 0°C | 0% | 0hPa | 0V | 00:00:00 | 00:00:00 | 00:00:00 | |
| LZ4TU-5 | 2026-09-02 09:11:45 | 44.85397 | 20.30218 | 77° | 100km/h | 11362m | 4.6m/s | 0°C | 0% | 0hPa | 0V | 00:00:00 | 00:00:00 | 00:00:00 | |
| LZ4TU-5 | 2026-09-02 09:11:40 | 44.85371 | 20.30048 | 80° | 93km/h | 11342m | 4.4m/s | 0°C | 0% | 0hPa | 0V | 00:00:00 | 00:00:00 | 00:00:00 | |
| LZ4TU-5 | 2026-09-02 09:10:27 | 44.85106 | 20.27753 | 81° | 86km/h | 11011m | 5.6m/s | 0°C | 0% | 0hPa | 0V | 00:00:00 | 00:00:00 | 00:00:00 | |
| LZ4TU-5 | 2026-09-02 09:10:22 | 44.85093 | 20.27638 | 83° | 88km/h | 10993m | 5.2m/s | 0°C | 0% | 0hPa | 0V | 00:00:00 | 00:00:00 | 00:00:00 | |
| LZ4TU-5 | 2026-09-02 09:10:18 | 44.85081 | 20.27526 | 84° | 82km/h | 10974m | 4.6m/s | 0°C | 0% | 0hPa | 0V | 00:00:00 | 00:00:00 | 00:00:00 | |
| LZ4TU-5 | 2026-09-02 09:10:13 | 44.85066 | 20.27380 | 82° | 78km/h | 10952m | 5.1m/s | 0°C | 0% | 0hPa | 0V | 00:00:00 | 00:00:00 | 00:00:00 | |
| LZ4TU-5 | 2026-09-02 09:10:09 | 44.85052 | 20.27267 | 76° | 78km/h | 10934m | 2.5m/s | 0°C | 0% | 0hPa | 0V | 00:00:00 | 00:00:00 | 00:00:00 | |
| LZ4TU-5 | 2026-09-02 09:09:58 | 44.85018 | 20.26938 | 80° | 86km/h | 10885m | 5.4m/s | 0°C | 0% | 0hPa | 0V | 00:00:00 | 00:00:00 | 00:00:00 | |
| LZ4TU-5 | 2026-09-02 09:09:54 | 44.85005 | 20.26813 | 85° | 89km/h | 10867m | 3.6m/s | 0°C | 0% | 0hPa | 0V | 00:00:00 | 00:00:00 | 00:00:00 | |
| LZ4TU-5 | 2026-09-02 09:09:49 | 44.84988 | 20.26656 | 79° | 86km/h | 10843m | 4.4m/s | 0°C | 0% | 0hPa | 0V | 00:00:00 | 00:00:00 | 00:00:00 | |
| LZ4TU-5 | 2026-09-02 09:09:44 | 44.84971 | 20.26503 | 88° | 91km/h | 10821m | 3.9m/s | 0°C | 0% | 0hPa | 0V | 00:00:00 | 00:00:00 | 00:00:00 | |
| LZ4TU-5 | 2026-09-02 09:08:28 | 44.84698 | 20.24186 | 84° | 88km/h | 10484m | 5.5m/s | 0°C | 0% | 0hPa | 0V | 00:00:00 | 00:00:00 | 00:00:00 | |
| LZ4TU-5 | 2026-09-02 09:08:24 | 44.84684 | 20.24063 | 81° | 95km/h | 10467m | 3.3m/s | 0°C | 0% | 0hPa | 0V | 00:00:00 | 00:00:00 | 00:00:00 | |
| LZ4TU-5 | 2026-09-02 09:08:20 | 44.84668 | 20.23938 | 79° | 95km/h | 10449m | 4.7m/s | 0°C | 0% | 0hPa | 0V | 00:00:00 | 00:00:00 | 00:00:00 | |
| LZ4TU-5 | 2026-09-02 09:08:16 | 44.84654 | 20.23814 | 82° | 93km/h | 10432m | 5.2m/s | 0°C | 0% | 0hPa | 0V | 00:00:00 | 00:00:00 | 00:00:00 | |
| LZ4TU-5 | 2026-09-02 09:08:11 | 44.84636 | 20.23659 | 81° | 97km/h | 10410m | 5.2m/s | 0°C | 0% | 0hPa | 0V | 00:00:00 | 00:00:00 | 00:00:00 | |
| LZ4TU-5 | 2026-09-02 09:06:56 | 44.84372 | 20.21343 | 87° | 95km/h | 10082m | 3.6m/s | 0°C | 0% | 0hPa | 0V | 00:00:00 | 00:00:00 | 00:00:00 | |
| LZ4TU-5 | 2026-09-02 09:06:51 | 44.84358 | 20.21180 | 81° | 91km/h | 10059m | 3.9m/s | 0°C | 0% | 0hPa | 0V | 00:00:00 | 00:00:00 | 00:00:00 | |
| LZ4TU-5 | 2026-09-02 09:06:47 | 44.84346 | 20.21047 | 86° | 97km/h | 10041m | 4.6m/s | 0°C | 0% | 0hPa | 0V | 00:00:00 | 00:00:00 | 00:00:00 | |
| LZ4TU-5 | 2026-09-02 09:06:42 | 44.84327 | 20.20879 | 77° | 97km/h | 10019m | 4.3m/s | 0°C | 0% | 0hPa | 0V | 00:00:00 | 00:00:00 | 00:00:00 | |
| LZ4TU-5 | 2026-09-02 09:06:38 | 44.84311 | 20.20747 | 77° | 100km/h | 10001m | 4.1m/s | 0°C | 0% | 0hPa | 0V | 00:00:00 | 00:00:00 | 00:00:00 | |
| LZ4TU-5 | 2026-09-02 09:06:34 | 44.84295 | 20.20612 | 84° | 100km/h | 9983m | 5.6m/s | 0°C | 0% | 0hPa | 0V | 00:00:00 | 00:00:00 | 00:00:00 | |
| LZ4TU-5 | 2026-09-02 09:06:30 | 44.84276 | 20.20482 | 85° | 99km/h | 9968m | 4.2m/s | 0°C | 0% | 0hPa | 0V | 00:00:00 | 00:00:00 | 00:00:00 | |
| LZ4TU-5 | 2026-09-02 09:06:26 | 44.84254 | 20.20313 | 80° | 100km/h | 9945m | 3.6m/s | 0°C | 0% | 0hPa | 0V | 00:00:00 | 00:00:00 | 00:00:00 | |
| LZ4TU-5 | 2026-09-02 09:06:21 | 44.84234 | 20.20182 | 82° | 100km/h | 9928m | 4.6m/s | 0°C | 0% | 0hPa | 0V | 00:00:00 | 00:00:00 | 00:00:00 | |
| LZ4TU-5 | 2026-09-02 09:06:17 | 44.84217 | 20.20051 | 78° | 91km/h | 9910m | 4.5m/s | 0°C | 0% | 0hPa | 0V | 00:00:00 | 00:00:00 | 00:00:00 | |
| LZ4TU-5 | 2026-09-02 09:04:57 | 44.83898 | 20.17309 | 83° | 93km/h | 9561m | 2.9m/s | 0°C | 0% | 0hPa | 0V | 00:00:00 | 00:00:00 | 00:00:00 | |
| LZ4TU-5 | 2026-09-02 09:04:53 | 44.83875 | 20.17136 | 78° | 97km/h | 9540m | 2.8m/s | 0°C | 0% | 0hPa | 0V | 00:00:00 | 00:00:00 | 00:00:00 | |
| LZ4TU-5 | 2026-09-02 09:04:48 | 44.83860 | 20.16995 | 80° | 93km/h | 9523m | 4.4m/s | 0°C | 0% | 0hPa | 0V | 00:00:00 | 00:00:00 | 00:00:00 | |
| LZ4TU-5 | 2026-09-02 09:04:43 | 44.83840 | 20.16823 | 78° | 93km/h | 9501m | 5.9m/s | 0°C | 0% | 0hPa | 0V | 00:00:00 | 00:00:00 | 00:00:00 | |
| LZ4TU-5 | 2026-09-02 09:04:39 | 44.83823 | 20.16684 | 79° | 100km/h | 9483m | 3.8m/s | 0°C | 0% | 0hPa | 0V | 00:00:00 | 00:00:00 | 00:00:00 | |
| LZ4TU-5 | 2026-09-02 09:03:27 | 44.83510 | 20.14177 | 80° | 102km/h | 9170m | 3.8m/s | 0°C | 0% | 0hPa | 0V | 00:00:00 | 00:00:00 | 00:00:00 | |
| LZ4TU-5 | 2026-09-02 09:03:22 | 44.83495 | 20.14042 | 83° | 97km/h | 9152m | 4.8m/s | 0°C | 0% | 0hPa | 0V | 00:00:00 | 00:00:00 | 00:00:00 | |
| LZ4TU-5 | 2026-09-02 09:03:18 | 44.83481 | 20.13906 | 83° | 86km/h | 9135m | 3.6m/s | 0°C | 0% | 0hPa | 0V | 00:00:00 | 00:00:00 | 00:00:00 | |
| LZ4TU-5 | 2026-09-02 09:03:14 | 44.83464 | 20.13767 | 77° | 97km/h | 9118m | 4.6m/s | 0°C | 0% | 0hPa | 0V | 00:00:00 | 00:00:00 | 00:00:00 | |
| LZ4TU-5 | 2026-09-02 09:03:10 | 44.83446 | 20.13632 | 75° | 104km/h | 9100m | 3.4m/s | 0°C | 0% | 0hPa | 0V | 00:00:00 | 00:00:00 | 00:00:00 | |
| LZ4TU-5 | 2026-09-02 09:03:06 | 44.83430 | 20.13496 | 77° | 99km/h | 9083m | 4.6m/s | 0°C | 0% | 0hPa | 0V | 00:00:00 | 00:00:00 | 00:00:00 | |
| LZ4TU-5 | 2026-09-02 09:01:55 | 44.83119 | 20.11066 | 83° | 100km/h | 8779m | 5.0m/s | 0°C | 0% | 0hPa | 0V | 00:00:00 | 00:00:00 | 00:00:00 | |
| LZ4TU-5 | 2026-09-02 09:01:49 | 44.83096 | 20.10899 | 82° | 89km/h | 8757m | 4.2m/s | 0°C | 0% | 0hPa | 0V | 00:00:00 | 00:00:00 | 00:00:00 | |
| LZ4TU-5 | 2026-09-02 09:01:45 | 44.83071 | 20.10766 | 76° | 89km/h | 8741m | 4.5m/s | 0°C | 0% | 0hPa | 0V | 00:00:00 | 00:00:00 | 00:00:00 | |
| LZ4TU-5 | 2026-09-02 09:01:42 | 44.83053 | 20.10635 | 75° | 88km/h | 8724m | 3.7m/s | 0°C | 0% | 0hPa | 0V | 00:00:00 | 00:00:00 | 00:00:00 | |
| LZ4TU-5 | 2026-09-02 09:01:37 | 44.83031 | 20.10506 | 78° | 97km/h | 8708m | 5.7m/s | 0°C | 0% | 0hPa | 0V | 00:00:00 | 00:00:00 | 00:00:00 | |
| LZ4TU-5 | 2026-09-02 09:01:33 | 44.83011 | 20.10378 | 76° | 97km/h | 8690m | 3.6m/s | 0°C | 0% | 0hPa | 0V | 00:00:00 | 00:00:00 | 00:00:00 | |
| LZ4TU-5 | 2026-09-02 09:00:19 | 44.82593 | 20.08192 | 75° | 78km/h | 8387m | 3.8m/s | 0°C | 0% | 0hPa | 0V | 00:00:00 | 00:00:00 | 00:00:00 | |
| LZ4TU-5 | 2026-09-02 09:00:15 | 44.82569 | 20.08081 | 76° | 86km/h | 8370m | 4.9m/s | 0°C | 0% | 0hPa | 0V | 00:00:00 | 00:00:00 | 00:00:00 | |
| LZ4TU-5 | 2026-09-02 09:00:11 | 44.82533 | 20.07947 | 63° | 84km/h | 8349m | 3.7m/s | 0°C | 0% | 0hPa | 0V | 00:00:00 | 00:00:00 | 00:00:00 |